createdAt,value
2023-03-05T00:02:00.579Z,8.63
2023-03-05T00:04:04.298Z,8.07
2023-03-05T00:06:06.389Z,9.40
2023-03-05T00:08:08.045Z,9.02
2023-03-05T00:10:10.274Z,8.35
2023-03-05T00:12:12.290Z,9.20
2023-03-05T00:14:13.965Z,7.10
2023-03-05T00:16:16.229Z,8.75
2023-03-05T00:18:18.010Z,8.23
2023-03-05T00:20:19.640Z,9.13
2023-03-05T00:22:21.268Z,8.20
2023-03-05T00:24:22.865Z,8.32
2023-03-05T00:26:27.188Z,7.93
2023-03-05T00:28:28.820Z,8.57
2023-03-05T00:30:31.498Z,9.80
2023-03-05T00:32:33.194Z,8.73
2023-03-05T00:34:36.374Z,10.07
2023-03-05T00:36:43.010Z,8.95
2023-03-05T00:38:44.625Z,9.63
2023-03-05T00:40:46.286Z,7.88
2023-03-05T00:42:48.000Z,8.63
2023-03-05T00:44:49.587Z,8.07
2023-03-05T00:46:51.446Z,7.35
2023-03-05T00:48:54.241Z,6.97
2023-03-05T00:50:55.872Z,8.05
2023-03-05T00:52:57.544Z,8.27
2023-03-05T00:54:59.406Z,7.80
2023-03-05T00:57:00.990Z,7.45
2023-03-05T00:59:03.756Z,8.00
2023-03-05T01:01:06.091Z,8.35
2023-03-05T01:03:07.889Z,8.05
2023-03-05T01:05:13.706Z,8.70
2023-03-05T01:07:15.395Z,6.40
2023-03-05T01:09:17.532Z,7.60
2023-03-05T01:11:19.161Z,7.50
2023-03-05T01:13:20.839Z,7.22
2023-03-05T01:15:24.085Z,7.95
2023-03-05T01:17:25.740Z,7.18
2023-03-05T01:19:27.360Z,7.10
2023-03-05T01:21:28.960Z,6.22
2023-03-05T01:23:30.555Z,7.85
2023-03-05T01:25:32.556Z,7.32
2023-03-05T01:27:34.446Z,6.65
2023-03-05T01:29:37.098Z,7.32
2023-03-05T01:31:39.001Z,6.85
2023-03-05T01:33:40.672Z,8.15
2023-03-05T01:35:42.295Z,7.55
2023-03-05T01:37:44.366Z,7.15
2023-03-05T01:39:45.955Z,7.95
2023-03-05T01:41:47.737Z,7.20
2023-03-05T01:43:50.388Z,6.97
2023-03-05T01:46:13.325Z,8.73
2023-03-05T01:48:14.978Z,7.78
2023-03-05T01:50:18.451Z,7.18
2023-03-05T01:52:22.380Z,6.88
2023-03-05T01:54:28.964Z,7.43
2023-03-05T01:56:31.024Z,7.97
2023-03-05T01:58:32.721Z,7.38
2023-03-05T02:00:38.478Z,8.30
2023-03-05T02:02:41.479Z,6.60
2023-03-05T02:04:46.953Z,8.18
2023-03-05T02:06:49.916Z,8.27
2023-03-05T02:08:52.165Z,6.80
2023-03-05T02:10:56.701Z,7.97
2023-03-05T02:13:01.311Z,8.00
2023-03-05T02:15:03.276Z,7.93
2023-03-05T02:17:05.416Z,6.95
2023-03-05T02:19:09.913Z,7.35
2023-03-05T02:21:11.887Z,8.90
2023-03-05T02:23:13.851Z,7.90
2023-03-05T02:25:17.140Z,7.68
2023-03-05T02:27:23.321Z,7.88
2023-03-05T02:29:25.120Z,7.57
2023-03-05T02:31:27.223Z,7.40
2023-03-05T02:33:29.014Z,7.35
2023-03-05T02:35:30.942Z,8.05
2023-03-05T02:37:32.667Z,7.05
2023-03-05T02:39:34.363Z,6.88
2023-03-05T02:41:36.223Z,7.93
2023-03-05T02:43:38.090Z,7.35
2023-03-05T02:45:42.881Z,7.85
2023-03-05T02:47:44.578Z,8.90
2023-03-05T02:49:46.218Z,9.02
2023-03-05T02:51:47.834Z,8.15
2023-03-05T02:53:49.837Z,8.45
2023-03-05T02:55:51.842Z,8.43
2023-03-05T02:57:53.799Z,9.18
2023-03-05T02:59:55.525Z,8.57
2023-03-05T03:01:57.142Z,8.07
2023-03-05T03:03:59.366Z,8.80
2023-03-05T03:06:01.354Z,7.95
2023-03-05T03:08:03.703Z,7.72
2023-03-05T03:10:06.659Z,8.40
2023-03-05T03:12:09.162Z,7.68
2023-03-05T03:14:10.817Z,8.35
2023-03-05T03:16:14.400Z,7.38
2023-03-05T03:18:15.995Z,7.15
2023-03-05T03:20:19.060Z,7.85
2023-03-05T03:22:20.774Z,8.50
2023-03-05T03:24:22.600Z,9.65
2023-03-05T03:26:24.372Z,6.82
2023-03-05T03:28:26.204Z,7.47
2023-03-05T03:30:27.803Z,8.02
2023-03-05T03:32:29.690Z,7.72
2023-03-05T03:34:31.359Z,7.32
2023-03-05T03:36:34.577Z,7.53
2023-03-05T03:38:36.214Z,7.97
2023-03-05T03:40:38.598Z,7.57
2023-03-05T03:42:40.291Z,7.90
2023-03-05T03:44:41.898Z,7.38
2023-03-05T03:46:46.161Z,6.95
2023-03-05T03:48:50.679Z,8.60
2023-03-05T03:50:52.296Z,8.80
2023-03-05T03:52:53.937Z,8.57
2023-03-05T03:55:01.472Z,7.40
2023-03-05T03:57:03.754Z,8.25
2023-03-05T03:59:05.702Z,7.82
2023-03-05T04:01:07.358Z,6.95
2023-03-05T04:03:09.402Z,8.52
2023-03-05T04:05:11.281Z,7.55
2023-03-05T04:07:13.211Z,7.55
2023-03-05T04:09:14.841Z,7.68
2023-03-05T04:11:19.300Z,7.00
2023-03-05T04:13:20.912Z,7.88
2023-03-05T04:15:22.579Z,8.88
2023-03-05T04:17:24.296Z,7.95
2023-03-05T04:19:25.993Z,8.32
2023-03-05T04:21:27.579Z,8.88
2023-03-05T04:23:29.205Z,8.63
2023-03-05T04:25:30.805Z,7.68
2023-03-05T04:27:37.626Z,8.50
2023-03-05T04:29:39.289Z,7.82
2023-03-05T04:31:40.910Z,8.73
2023-03-05T04:33:42.555Z,8.23
2023-03-05T04:35:44.348Z,8.95
2023-03-05T04:37:46.004Z,7.90
2023-03-05T04:39:47.620Z,8.18
2023-03-05T04:41:49.502Z,7.85
2023-03-05T04:43:51.137Z,7.78
2023-03-05T04:45:52.758Z,9.48
2023-03-05T04:47:54.446Z,7.30
2023-03-05T04:49:56.050Z,8.32
2023-03-05T04:51:57.700Z,8.73
2023-03-05T04:53:59.319Z,8.15
2023-03-05T04:56:01.681Z,8.02
2023-03-05T04:58:03.551Z,8.15
2023-03-05T05:00:08.462Z,8.80
2023-03-05T05:02:10.099Z,7.38
2023-03-05T05:04:11.782Z,8.07
2023-03-05T05:06:13.375Z,7.95
2023-03-05T05:08:15.012Z,9.30
2023-03-05T05:10:17.405Z,8.80
2023-03-05T05:12:19.062Z,8.85
2023-03-05T05:14:20.715Z,8.00
2023-03-05T05:16:22.436Z,8.57
2023-03-05T05:18:24.376Z,9.00
2023-03-05T05:20:26.021Z,8.77
2023-03-05T05:22:29.103Z,7.60
2023-03-05T05:24:30.742Z,8.15
2023-03-05T05:26:32.403Z,8.75
2023-03-05T05:28:35.202Z,7.97
2023-03-05T05:30:36.772Z,8.00
2023-03-05T05:32:38.594Z,9.00
2023-03-05T05:34:40.244Z,8.95
2023-03-05T05:36:41.892Z,9.13
2023-03-05T05:38:43.596Z,8.52
2023-03-05T05:40:45.512Z,8.98
2023-03-05T05:42:47.275Z,8.63
2023-03-05T05:44:49.239Z,8.20
2023-03-05T05:46:50.831Z,8.48
2023-03-05T05:48:52.439Z,7.88
2023-03-05T05:50:54.057Z,7.50
2023-03-05T05:52:55.831Z,8.35
2023-03-05T05:54:57.425Z,7.50
2023-03-05T05:56:59.017Z,6.78
2023-03-05T05:59:00.679Z,7.15
2023-03-05T06:01:02.793Z,7.45
2023-03-05T06:03:04.538Z,6.22
2023-03-05T06:05:07.312Z,6.88
2023-03-05T06:07:08.951Z,6.68
2023-03-05T06:09:10.603Z,6.80
2023-03-05T06:11:12.318Z,6.40
2023-03-05T06:13:13.933Z,7.45
2023-03-05T06:15:15.518Z,6.25
2023-03-05T06:17:28.680Z,7.03
2023-03-05T06:19:32.099Z,6.32
2023-03-05T06:21:33.769Z,6.57
2023-03-05T06:23:35.733Z,6.43
2023-03-05T06:25:37.811Z,5.88
2023-03-05T06:27:39.565Z,6.32
2023-03-05T06:29:41.149Z,6.50
2023-03-05T06:31:42.764Z,7.40
2023-03-05T06:33:45.006Z,6.70
2023-03-05T06:35:46.664Z,6.25
2023-03-05T06:37:48.728Z,7.15
2023-03-05T06:39:50.457Z,5.88
2023-03-05T06:41:52.319Z,6.13
2023-03-05T06:43:54.623Z,7.00
2023-03-05T06:46:11.577Z,7.22
2023-03-05T06:48:13.325Z,6.68
2023-03-05T06:50:15.111Z,5.57
2023-03-05T06:52:16.772Z,6.43
2023-03-05T06:54:18.502Z,6.10
2023-03-05T06:56:21.278Z,5.85
2023-03-05T06:58:23.184Z,6.05
2023-03-05T07:00:29.606Z,5.88
2023-03-05T07:02:31.547Z,5.47
2023-03-05T07:04:33.198Z,6.00
2023-03-05T07:06:38.258Z,6.15
2023-03-05T07:08:40.117Z,5.55
2023-03-05T07:10:43.432Z,5.68
2023-03-05T07:12:45.118Z,6.53
2023-03-05T07:14:46.894Z,5.45
2023-03-05T07:16:48.719Z,5.28
2023-03-05T07:18:50.641Z,6.32
2023-03-05T07:20:52.232Z,7.10
2023-03-05T07:22:53.853Z,6.18
2023-03-05T07:24:55.474Z,5.50
2023-03-05T07:26:57.544Z,5.97
2023-03-05T07:28:59.503Z,5.13
2023-03-05T07:31:12.519Z,7.43
2023-03-05T07:33:14.173Z,6.25
2023-03-05T07:35:15.835Z,6.25
2023-03-05T07:37:17.407Z,6.47
2023-03-05T07:39:19.356Z,5.95
2023-03-05T07:41:23.365Z,6.68
2023-03-05T07:43:25.083Z,6.47
2023-03-05T07:45:26.808Z,5.72
2023-03-05T07:47:28.434Z,5.93
2023-03-05T07:49:30.313Z,6.05
2023-03-05T07:51:31.995Z,5.80
2023-03-05T07:53:33.653Z,6.03
2023-03-05T07:55:35.476Z,5.45
2023-03-05T07:57:38.229Z,5.28
2023-03-05T07:59:39.983Z,6.50
2023-03-05T08:01:41.616Z,5.53
2023-03-05T08:03:43.768Z,5.00
2023-03-05T08:05:45.660Z,5.03
2023-03-05T08:07:47.242Z,5.07
2023-03-05T08:09:49.162Z,5.40
2023-03-05T08:11:50.859Z,5.22
2023-03-05T08:13:52.505Z,5.18
2023-03-05T08:15:54.214Z,6.05
2023-03-05T08:17:55.860Z,5.97
2023-03-05T08:20:00.384Z,4.07
2023-03-05T08:22:01.971Z,4.53
2023-03-05T08:24:05.888Z,4.05
2023-03-05T08:26:14.977Z,4.10
2023-03-05T08:28:19.718Z,3.42
2023-03-05T08:30:22.461Z,4.22
2023-03-05T08:32:24.434Z,3.72
2023-03-05T08:34:26.116Z,3.30
2023-03-05T08:36:28.373Z,3.63
2023-03-05T08:38:30.094Z,2.95
2023-03-05T08:40:31.746Z,3.35
2023-03-05T08:42:33.374Z,3.22
2023-03-05T08:44:34.986Z,2.80
2023-03-05T08:46:38.701Z,2.83
2023-03-05T08:48:40.793Z,2.17
2023-03-05T08:50:42.426Z,2.50
2023-03-05T08:52:44.083Z,2.70
2023-03-05T08:54:45.704Z,3.25
2023-03-05T08:56:47.281Z,2.55
2023-03-05T08:58:48.977Z,2.58
2023-03-05T09:00:51.385Z,3.22
2023-03-05T09:02:52.996Z,3.00
2023-03-05T09:04:54.663Z,3.03
2023-03-05T09:06:57.391Z,3.40
2023-03-05T09:08:59.069Z,3.33
2023-03-05T09:11:05.595Z,3.22
2023-03-05T09:13:07.809Z,3.78
2023-03-05T09:15:10.701Z,3.13
2023-03-05T09:17:12.287Z,2.95
2023-03-05T09:19:15.262Z,2.60
2023-03-05T09:21:17.787Z,2.58
2023-03-05T09:23:19.638Z,3.08
2023-03-05T09:25:21.489Z,3.25
2023-03-05T09:27:23.270Z,2.70
2023-03-05T09:29:24.945Z,2.45
2023-03-05T09:31:26.815Z,2.83
2023-03-05T09:33:28.496Z,2.38
2023-03-05T09:35:30.454Z,2.65
2023-03-05T09:37:32.142Z,2.20
2023-03-05T09:39:33.787Z,2.50
2023-03-05T09:41:51.776Z,2.50
2023-03-05T09:44:12.307Z,2.47
2023-03-05T09:46:26.230Z,2.33
2023-03-05T09:49:14.974Z,2.17
2023-03-05T09:51:22.504Z,2.00
2023-03-05T09:53:30.205Z,2.53
2023-03-05T09:55:41.113Z,2.03
2023-03-05T09:57:49.185Z,2.55
2023-03-05T09:59:54.780Z,2.17
2023-03-05T10:02:05.949Z,2.40
2023-03-05T10:04:22.259Z,3.13
2023-03-05T10:06:26.566Z,2.10
2023-03-05T10:08:46.545Z,2.55
2023-03-05T10:10:51.542Z,2.53
2023-03-05T10:12:57.038Z,2.60
2023-03-05T10:15:00.788Z,2.30
2023-03-05T10:17:23.646Z,1.90
2023-03-05T10:19:40.521Z,2.05
2023-03-05T10:21:54.409Z,2.50
2023-03-05T10:24:01.848Z,2.25
2023-03-05T10:26:25.287Z,2.03
2023-03-05T10:28:42.935Z,2.42
2023-03-05T10:31:05.851Z,2.35
2023-03-05T10:33:21.651Z,2.00
2023-03-05T10:35:32.975Z,2.22
2023-03-05T10:37:39.488Z,2.22
2023-03-05T10:40:13.633Z,2.28
2023-03-05T10:42:15.199Z,2.70
2023-03-05T10:44:47.259Z,2.17
2023-03-05T10:46:49.407Z,2.03
2023-03-05T10:48:58.732Z,2.25
2023-03-05T10:51:10.037Z,2.45
2023-03-05T10:53:33.820Z,2.60
2023-03-05T10:55:35.512Z,2.60
2023-03-05T10:57:37.101Z,2.55
2023-03-05T10:59:41.919Z,2.60
2023-03-05T11:02:02.207Z,2.40
2023-03-05T11:04:06.401Z,2.33
2023-03-05T11:06:11.234Z,2.70
2023-03-05T11:08:30.066Z,2.60
2023-03-05T11:10:31.661Z,2.88
2023-03-05T11:12:35.092Z,2.92
2023-03-05T11:14:39.895Z,2.63
2023-03-05T11:16:49.568Z,2.20
2023-03-05T11:18:52.319Z,2.53
2023-03-05T11:21:07.905Z,2.03
2023-03-05T11:23:25.475Z,2.60
2023-03-05T11:25:27.153Z,2.75
2023-03-05T11:27:35.524Z,2.85
2023-03-05T11:29:48.489Z,2.67
2023-03-05T11:31:50.716Z,2.40
2023-03-05T11:33:57.068Z,3.22
2023-03-05T11:36:10.995Z,2.63
2023-03-05T11:38:26.750Z,3.13
2023-03-05T11:40:30.614Z,3.50
2023-03-05T11:42:32.269Z,3.20
2023-03-05T11:44:47.913Z,2.73
2023-03-05T11:46:52.966Z,3.65
2023-03-05T11:48:55.010Z,3.50
2023-03-05T11:51:01.642Z,3.20
2023-03-05T11:53:18.848Z,2.72
2023-03-05T11:55:42.890Z,3.75
2023-03-05T11:57:48.975Z,3.15
2023-03-05T11:59:52.411Z,3.17
2023-03-05T12:01:55.748Z,3.28
2023-03-05T12:03:58.880Z,3.25
2023-03-05T12:06:29.371Z,3.50
2023-03-05T12:08:35.792Z,3.13
2023-03-05T12:10:37.459Z,3.17
2023-03-05T12:12:58.001Z,3.13
2023-03-05T12:15:31.403Z,3.35
2023-03-05T12:17:48.336Z,3.72
2023-03-05T12:20:01.600Z,3.47
2023-03-05T12:22:04.209Z,3.17
2023-03-05T12:24:26.040Z,3.10
2023-03-05T12:27:03.793Z,2.63
2023-03-05T12:29:05.475Z,4.00
2023-03-05T12:31:09.861Z,3.42
2023-03-05T12:33:33.574Z,3.47
2023-03-05T12:35:39.736Z,2.75
2023-03-05T12:37:44.430Z,3.95
2023-03-05T12:39:49.810Z,3.72
2023-03-05T12:41:51.410Z,3.78
2023-03-05T12:44:05.075Z,3.58
2023-03-05T12:46:26.218Z,3.42
2023-03-05T12:48:27.865Z,3.80
2023-03-05T12:50:29.490Z,3.88
2023-03-05T12:52:34.466Z,3.13
2023-03-05T12:54:40.087Z,4.32
2023-03-05T12:56:45.238Z,3.22
2023-03-05T12:58:54.008Z,4.22
2023-03-05T13:01:14.844Z,3.45
2023-03-05T13:03:23.779Z,3.80
2023-03-05T13:05:33.595Z,3.47
2023-03-05T13:07:35.538Z,3.58
2023-03-05T13:09:37.138Z,3.45
2023-03-05T13:11:39.377Z,3.53
2023-03-05T13:13:46.750Z,4.15
2023-03-05T13:15:49.636Z,5.00
2023-03-05T13:18:03.308Z,4.63
2023-03-05T13:20:24.671Z,3.53
2023-03-05T13:22:27.038Z,3.97
2023-03-05T13:24:29.419Z,2.80
2023-03-05T13:26:39.584Z,3.88
2023-03-05T13:28:44.342Z,3.75
2023-03-05T13:30:52.345Z,3.08
2023-03-05T13:32:58.460Z,3.53
2023-03-05T13:35:01.317Z,3.05
2023-03-05T13:37:18.549Z,4.03
2023-03-05T13:39:23.086Z,3.90
2023-03-05T13:41:27.202Z,3.88
2023-03-05T13:43:28.869Z,3.28
2023-03-05T13:45:31.784Z,2.75
2023-03-05T13:47:35.266Z,4.57
2023-03-05T13:49:36.938Z,4.53
2023-03-05T13:51:49.168Z,3.45
2023-03-05T13:53:51.077Z,3.42
2023-03-05T13:55:55.517Z,3.72
2023-03-05T13:57:57.188Z,3.05
2023-03-05T13:59:58.787Z,3.22
2023-03-05T14:02:02.104Z,3.53
2023-03-05T14:04:08.667Z,3.53
2023-03-05T14:06:12.007Z,3.00
2023-03-05T14:08:26.623Z,3.22
2023-03-05T14:10:35.401Z,4.55
2023-03-05T14:12:42.753Z,3.03
2023-03-05T14:14:45.163Z,3.95
2023-03-05T14:16:46.768Z,3.40
2023-03-05T14:19:03.161Z,3.20
2023-03-05T14:21:09.828Z,3.40
2023-03-05T14:23:44.945Z,2.63
2023-03-05T14:25:46.737Z,2.38
2023-03-05T14:27:48.365Z,2.85
2023-03-05T14:29:50.133Z,3.25
2023-03-05T14:32:00.728Z,2.85
2023-03-05T14:34:06.534Z,2.90
2023-03-05T14:36:09.316Z,2.75
2023-03-05T14:38:22.240Z,2.65
2023-03-05T14:40:29.123Z,2.58
2023-03-05T14:42:50.006Z,2.55
2023-03-05T14:44:51.651Z,2.17
2023-03-05T14:46:53.412Z,2.67
2023-03-05T14:48:55.080Z,2.38
2023-03-05T14:50:57.334Z,1.70
2023-03-05T14:53:04.588Z,2.55
2023-03-05T14:55:06.920Z,2.08
2023-03-05T14:57:15.879Z,2.13
2023-03-05T14:59:18.817Z,2.33
2023-03-05T15:01:20.605Z,2.25
2023-03-05T15:03:23.084Z,1.90
2023-03-05T15:05:25.179Z,1.83
2023-03-05T15:07:30.358Z,3.10
2023-03-05T15:09:31.987Z,3.35
2023-03-05T15:11:34.307Z,2.58
2023-03-05T15:13:36.578Z,3.17
2023-03-05T15:15:39.496Z,3.10
2023-03-05T15:17:43.989Z,2.08
2023-03-05T15:19:47.159Z,2.33
2023-03-05T15:21:48.865Z,2.28
2023-03-05T15:23:50.472Z,2.10
2023-03-05T15:25:55.429Z,2.45
2023-03-05T15:27:57.093Z,2.38
2023-03-05T15:29:59.725Z,3.08
2023-03-05T15:32:02.393Z,2.20
2023-03-05T15:34:05.525Z,2.65
2023-03-05T15:36:08.864Z,2.53
2023-03-05T15:38:10.440Z,1.90
2023-03-05T15:40:12.744Z,1.80
2023-03-05T15:42:14.415Z,2.65
2023-03-05T15:44:16.078Z,2.47
2023-03-05T15:46:17.780Z,2.33
2023-03-05T15:48:19.396Z,1.98
2023-03-05T15:50:22.180Z,2.90
2023-03-05T15:52:24.008Z,2.08
2023-03-05T15:54:26.337Z,2.45
2023-03-05T15:56:28.080Z,8.20
2023-03-05T15:58:29.784Z,3.63
2023-03-05T16:00:32.559Z,3.30
2023-03-05T16:02:34.222Z,4.53
2023-03-05T16:04:35.845Z,3.95
2023-03-05T16:06:37.609Z,2.88
2023-03-05T16:08:39.749Z,3.17
2023-03-05T16:10:41.461Z,2.95
2023-03-05T16:12:45.013Z,2.72
2023-03-05T16:14:47.100Z,2.92
2023-03-05T16:16:49.128Z,2.97
2023-03-05T16:18:50.771Z,3.33
2023-03-05T16:20:52.605Z,2.88
2023-03-05T16:22:54.248Z,2.65
2023-03-05T16:24:56.572Z,2.30
2023-03-05T16:26:58.228Z,2.35
2023-03-05T16:28:59.825Z,2.17
2023-03-05T16:31:02.019Z,2.50
2023-03-05T16:33:03.948Z,2.25
2023-03-05T16:35:06.110Z,2.10
2023-03-05T16:37:07.793Z,2.30
2023-03-05T16:39:09.454Z,2.00
2023-03-05T16:41:11.096Z,1.55
2023-03-05T16:43:12.741Z,2.47
2023-03-05T16:45:14.387Z,2.05
2023-03-05T16:47:16.071Z,5.35
2023-03-05T16:49:17.853Z,3.17
2023-03-05T16:51:20.918Z,3.30
2023-03-05T16:53:22.598Z,2.15
2023-03-05T16:55:24.266Z,2.15
2023-03-05T16:57:26.137Z,2.33
2023-03-05T16:59:28.351Z,2.25
2023-03-05T17:01:30.487Z,2.08
2023-03-05T17:03:32.094Z,2.78
2023-03-05T17:05:36.884Z,5.97
2023-03-05T17:07:38.492Z,10.70
2023-03-05T17:09:40.359Z,6.25
2023-03-05T17:11:42.016Z,5.88
2023-03-05T17:13:44.085Z,6.40
2023-03-05T17:15:45.719Z,5.57
2023-03-05T17:17:47.357Z,2.53
2023-03-05T17:19:49.272Z,2.28
2023-03-05T17:21:52.367Z,3.13
2023-03-05T17:23:54.648Z,2.88
2023-03-05T17:25:56.275Z,4.28
2023-03-05T17:27:57.844Z,4.97
2023-03-05T17:29:59.463Z,4.32
2023-03-05T17:32:01.431Z,5.00
2023-03-05T17:34:03.282Z,6.20
2023-03-05T17:36:05.658Z,4.40
2023-03-05T17:38:10.775Z,4.70
2023-03-05T17:40:14.202Z,4.95
2023-03-05T17:42:15.934Z,4.78
2023-03-05T17:44:17.523Z,4.68
2023-03-05T17:46:19.175Z,4.22
2023-03-05T17:48:20.772Z,6.10
2023-03-05T17:50:22.377Z,6.10
2023-03-05T17:52:24.112Z,7.97
2023-03-05T17:54:26.133Z,5.38
2023-03-05T17:56:27.774Z,3.30
2023-03-05T17:58:29.453Z,4.47
2023-03-05T18:00:31.742Z,3.88
2023-03-05T18:02:33.617Z,4.75
2023-03-05T18:04:35.331Z,6.65
2023-03-05T18:06:40.059Z,6.95
2023-03-05T18:08:41.667Z,4.85
2023-03-05T18:10:43.426Z,5.80
2023-03-05T18:12:45.925Z,7.68
2023-03-05T18:14:47.641Z,7.70
2023-03-05T18:16:49.402Z,9.48
2023-03-05T18:18:54.093Z,9.65
2023-03-05T18:20:55.970Z,7.22
2023-03-05T18:22:59.895Z,6.47
2023-03-05T18:25:01.908Z,8.18
2023-03-05T18:27:03.658Z,5.28
2023-03-05T18:29:05.357Z,6.35
2023-03-05T18:31:07.552Z,6.70
2023-03-05T18:33:23.379Z,7.32
2023-03-05T18:35:25.085Z,5.75
2023-03-05T18:37:26.793Z,5.90
2023-03-05T18:39:29.346Z,6.35
2023-03-05T18:41:31.410Z,7.80
2023-03-05T18:43:33.121Z,7.47
2023-03-05T18:45:34.788Z,5.70
2023-03-05T18:47:38.238Z,6.60
2023-03-05T18:49:39.865Z,8.68
2023-03-05T18:51:42.271Z,7.72
2023-03-05T18:53:44.135Z,6.28
2023-03-05T18:55:45.915Z,5.63
2023-03-05T18:57:47.587Z,5.55
2023-03-05T18:59:49.221Z,6.07
2023-03-05T19:01:50.894Z,5.65
2023-03-05T19:03:52.812Z,5.75
2023-03-05T19:05:54.773Z,6.45
2023-03-05T19:07:56.758Z,4.88
2023-03-05T19:10:03.514Z,5.72
2023-03-05T19:12:05.500Z,5.25
2023-03-05T19:14:07.134Z,5.00
2023-03-05T19:16:14.568Z,3.88
2023-03-05T19:18:18.610Z,5.30
2023-03-05T19:20:20.257Z,4.28
2023-03-05T19:22:23.084Z,5.25
2023-03-05T19:24:26.884Z,5.22
2023-03-05T19:26:28.590Z,4.57
2023-03-05T19:28:30.367Z,4.97
2023-03-05T19:30:31.933Z,4.78
2023-03-05T19:32:34.199Z,4.88
2023-03-05T19:34:36.206Z,5.30
2023-03-05T19:36:37.962Z,4.43
2023-03-05T19:38:39.924Z,5.40
2023-03-05T19:40:41.786Z,4.43
2023-03-05T19:42:43.460Z,4.53
2023-03-05T19:44:45.093Z,5.03
2023-03-05T19:46:48.507Z,4.65
2023-03-05T19:48:50.168Z,5.15
2023-03-05T19:50:51.804Z,4.82
2023-03-05T19:52:53.451Z,4.78
2023-03-05T19:54:55.206Z,5.47
2023-03-05T19:56:56.847Z,4.60
2023-03-05T19:58:58.448Z,5.25
2023-03-05T20:01:10.217Z,5.13
2023-03-05T20:03:12.302Z,5.85
2023-03-05T20:05:13.912Z,5.97
2023-03-05T20:07:16.139Z,5.68
2023-03-05T20:09:17.781Z,6.72
2023-03-05T20:11:21.388Z,9.10
2023-03-05T20:13:25.415Z,8.57
2023-03-05T20:15:29.304Z,8.75
2023-03-05T20:17:30.918Z,7.00
2023-03-05T20:19:32.717Z,7.72
2023-03-05T20:21:37.569Z,6.22
2023-03-05T20:23:40.083Z,7.18
2023-03-05T20:25:41.689Z,8.70
2023-03-05T20:27:43.850Z,10.15
2023-03-05T20:29:45.844Z,10.35
2023-03-05T20:31:48.027Z,8.80
2023-03-05T20:33:49.653Z,9.70
2023-03-05T20:35:51.547Z,9.52
2023-03-05T20:38:15.466Z,9.85
2023-03-05T20:40:17.771Z,11.00
2023-03-05T20:42:19.389Z,10.27
2023-03-05T20:44:21.146Z,11.02
2023-03-05T20:46:31.729Z,12.05
2023-03-05T20:48:34.156Z,11.77
2023-03-05T20:50:35.768Z,11.48
2023-03-05T20:52:38.181Z,9.27
2023-03-05T20:54:39.883Z,11.80
2023-03-05T20:56:41.977Z,9.25
2023-03-05T20:58:43.660Z,9.45
2023-03-05T21:00:45.326Z,10.65
2023-03-05T21:02:47.612Z,7.28
2023-03-05T21:04:49.272Z,7.03
2023-03-05T21:06:54.307Z,7.93
2023-03-05T21:08:56.544Z,6.93
2023-03-05T21:10:59.267Z,5.75
2023-03-05T21:13:01.137Z,6.18
2023-03-05T21:15:02.947Z,7.25
2023-03-05T21:17:05.328Z,6.60
2023-03-05T21:19:06.952Z,7.70
2023-03-05T21:21:08.656Z,6.72
2023-03-05T21:23:10.338Z,6.78
2023-03-05T21:25:22.996Z,6.43
2023-03-05T21:27:24.998Z,7.68
2023-03-05T21:29:26.632Z,7.68
2023-03-05T21:31:28.409Z,6.15
2023-03-05T21:33:30.500Z,6.47
2023-03-05T21:35:32.858Z,7.18
2023-03-05T21:37:36.877Z,6.97
2023-03-05T21:39:38.567Z,5.43
2023-03-05T21:41:40.200Z,6.18
2023-03-05T21:43:42.750Z,5.30
2023-03-05T21:45:46.597Z,5.88
2023-03-05T21:47:49.348Z,6.03
2023-03-05T21:49:51.416Z,6.53
2023-03-05T21:52:19.661Z,8.45
2023-03-05T21:54:23.656Z,7.82
2023-03-05T21:56:26.410Z,7.68
2023-03-05T21:58:28.020Z,7.63
2023-03-05T22:00:29.644Z,7.70
2023-03-05T22:02:31.370Z,7.88
2023-03-05T22:04:32.958Z,6.60
2023-03-05T22:06:34.902Z,7.70
2023-03-05T22:08:36.569Z,7.57
2023-03-05T22:10:40.567Z,6.53
2023-03-05T22:13:08.089Z,5.80
2023-03-05T22:15:10.151Z,5.72
2023-03-05T22:17:11.784Z,5.82
2023-03-05T22:19:13.490Z,5.50
2023-03-05T22:21:18.316Z,6.25
2023-03-05T22:23:22.431Z,7.13
2023-03-05T22:25:24.061Z,4.32
2023-03-05T22:27:25.663Z,5.65
2023-03-05T22:29:27.402Z,4.25
2023-03-05T22:31:30.454Z,4.25
2023-03-05T22:33:32.072Z,5.25
2023-03-05T22:35:33.695Z,4.10
2023-03-05T22:37:35.318Z,3.83
2023-03-05T22:39:36.888Z,4.53
2023-03-05T22:41:41.116Z,4.40
2023-03-05T22:43:42.845Z,4.18
2023-03-05T22:45:44.682Z,4.32
2023-03-05T22:47:50.413Z,3.53
2023-03-05T22:49:52.003Z,3.97
2023-03-05T22:51:53.637Z,4.35
2023-03-05T22:53:55.260Z,4.13
2023-03-05T22:55:56.839Z,5.13
2023-03-05T22:57:58.678Z,3.83
2023-03-05T23:00:00.252Z,4.32
2023-03-05T23:02:01.901Z,4.78
2023-03-05T23:04:12.135Z,4.97
2023-03-05T23:06:13.755Z,5.18
2023-03-05T23:08:15.425Z,6.50
2023-03-05T23:10:25.599Z,6.97
2023-03-05T23:12:30.954Z,6.95
2023-03-05T23:14:32.579Z,6.70
2023-03-05T23:16:34.468Z,6.05
2023-03-05T23:18:36.134Z,5.13
2023-03-05T23:20:37.908Z,4.95
2023-03-05T23:22:40.214Z,5.18
2023-03-05T23:24:42.063Z,5.55
2023-03-05T23:26:44.029Z,4.38
2023-03-05T23:28:45.618Z,5.07
2023-03-05T23:30:47.369Z,5.25
2023-03-05T23:32:54.715Z,5.07
2023-03-05T23:34:56.426Z,5.22
2023-03-05T23:37:00.285Z,5.80
2023-03-05T23:39:01.924Z,5.35
2023-03-05T23:41:08.194Z,5.38
2023-03-05T23:43:10.064Z,5.22
2023-03-05T23:45:13.859Z,5.10
2023-03-05T23:47:15.486Z,5.10
2023-03-05T23:49:17.140Z,4.88
2023-03-05T23:51:19.203Z,4.57
2023-03-05T23:53:25.989Z,5.05
2023-03-05T23:55:34.017Z,5.28
2023-03-05T23:57:35.937Z,4.47
2023-03-05T23:59:37.658Z,4.82
